Time;durP1;ratioP1;P1;durP2;ratioP2;P2;SDS_P1;SDS_P2;PMS_P1;PMS_P2;Temp;Humidity;BMP_temperature;BMP_pressure;BME280_temperature;BME280_humidity;BME280_pressure;Samples;Min_cycle;Max_cycle;Signal;HPM_P1;HPM_P2
2022/08/12 00:43:20;;;;;;;6.80;2.80;;;;;;;;;;5059483;28;20501;-78
2022/08/12 00:48:32;;;;;;;6.25;2.80;;;;;;;;;;5058588;28;20087;-73
2022/08/12 00:51:00;;;;;;;7.40;2.90;;;;;;;;;;5063175;28;20032;-73
2022/08/12 00:53:27;;;;;;;4.90;2.60;;;;;;;;;;5070195;28;20040;-72
2022/08/12 00:55:55;;;;;;;7.53;3.38;;;;;;;;;;5058033;28;20132;-72
2022/08/12 00:58:23;;;;;;;5.03;2.95;;;;;;;;;;5056202;28;20032;-76
2022/08/12 01:00:50;;;;;;;5.65;3.00;;;;;;;;;;5059096;28;20021;-73
2022/08/12 01:03:19;;;;;;;7.88;2.90;;;;;;;;;;5060767;28;20036;-78
2022/08/12 01:11:30;;;;;;;5.60;2.63;;;;;;;;;;5057349;28;20048;-72
2022/08/12 01:13:58;;;;;;;6.97;3.13;;;;;;;;;;5059113;28;20033;-72
2022/08/12 01:16:25;;;;;;;5.93;2.72;;;;;;;;;;5066684;28;20031;-73
2022/08/12 01:18:53;;;;;;;6.45;2.70;;;;;;;;;;5061343;28;20040;-73
2022/08/12 01:21:19;;;;;;;7.10;2.90;;;;;;;;;;5054937;28;20039;-72
2022/08/12 01:23:48;;;;;;;5.78;2.80;;;;;;;;;;5058468;28;20017;-73
2022/08/12 01:26:19;;;;;;;8.35;3.03;;;;;;;;;;5057114;28;20045;-72
2022/08/12 01:28:47;;;;;;;10.55;2.63;;;;;;;;;;5056060;28;20032;-72
2022/08/12 01:31:15;;;;;;;8.23;2.63;;;;;;;;;;5055100;28;20048;-72
2022/08/12 01:34:02;;;;;;;6.55;2.90;;;;;;;;;;5059260;28;20087;-73
2022/08/12 01:36:29;;;;;;;7.93;2.67;;;;;;;;;;5057903;28;20040;-72
2022/08/12 01:39:00;;;;;;;7.88;2.97;;;;;;;;;;5056034;28;20044;-72
2022/08/12 01:41:30;;;;;;;6.38;2.55;;;;;;;;;;5063504;28;20083;-78
2022/08/12 01:43:59;;;;;;;7.05;2.63;;;;;;;;;;5045990;28;20492;-74
2022/08/12 01:46:39;;;;;;;8.18;3.03;;;;;;;;;;5064961;28;20025;-72
2022/08/12 01:49:11;;;;;;;5.85;2.55;;;;;;;;;;5067152;28;20087;-71
2022/08/12 01:51:41;;;;;;;5.20;2.47;;;;;;;;;;5060756;28;20120;-72
2022/08/12 01:54:12;;;;;;;4.95;2.83;;;;;;;;;;5061924;28;20037;-72
2022/08/12 01:56:53;;;;;;;5.93;2.80;;;;;;;;;;5065071;28;20044;-76
2022/08/12 01:59:45;;;;;;;3.88;2.60;;;;;;;;;;5063510;28;20033;-72
2022/08/12 02:02:15;;;;;;;5.88;2.65;;;;;;;;;;5055929;28;20032;-72
2022/08/12 02:13:45;;;;;;;7.57;2.95;;;;;;;;;;4997478;28;20133;-72
2022/08/12 02:16:37;;;;;;;6.15;2.78;;;;;;;;;;5010120;28;20018;-72
2022/08/12 02:19:05;;;;;;;7.57;2.60;;;;;;;;;;4980268;28;20038;-72
2022/08/12 02:21:46;;;;;;;4.35;2.70;;;;;;;;;;4998690;28;20507;-71
2022/08/12 02:24:20;;;;;;;4.70;2.95;;;;;;;;;;5004435;28;20472;-72
2022/08/12 02:26:50;;;;;;;3.92;2.50;;;;;;;;;;4998892;28;20037;-71
2022/08/12 02:29:18;;;;;;;3.53;2.90;;;;;;;;;;5002014;28;20041;-73
2022/08/12 02:31:45;;;;;;;4.65;2.53;;;;;;;;;;5003171;28;20096;-71
2022/08/12 02:34:12;;;;;;;7.22;2.60;;;;;;;;;;5001353;28;20088;-71
2022/08/12 02:36:39;;;;;;;6.10;2.80;;;;;;;;;;5000100;28;20136;-71
2022/08/12 02:39:06;;;;;;;5.75;2.67;;;;;;;;;;5000483;28;20026;-71
2022/08/12 02:41:34;;;;;;;6.38;2.70;;;;;;;;;;5000031;28;20053;-72
2022/08/12 02:44:02;;;;;;;7.65;2.90;;;;;;;;;;4996960;28;20030;-73
2022/08/12 02:46:30;;;;;;;4.00;2.60;;;;;;;;;;5005047;28;20125;-71
2022/08/12 02:49:19;;;;;;;7.35;2.83;;;;;;;;;;5041573;28;20096;-71
2022/08/12 02:51:45;;;;;;;10.35;2.80;;;;;;;;;;4961513;28;20082;-71
2022/08/12 02:54:11;;;;;;;6.03;2.78;;;;;;;;;;4958644;29;20070;-69
2022/08/12 02:56:39;;;;;;;5.97;2.85;;;;;;;;;;4961342;29;20231;-70
2022/08/12 02:59:10;;;;;;;6.32;2.45;;;;;;;;;;4958338;28;20405;-70
2022/08/12 03:01:40;;;;;;;3.38;2.42;;;;;;;;;;4955728;29;20505;-70
2022/08/12 03:04:07;;;;;;;8.93;3.00;;;;;;;;;;4955935;29;20058;-69
2022/08/12 03:06:39;;;;;;;7.00;3.03;;;;;;;;;;4959024;29;20015;-70
2022/08/12 03:09:06;;;;;;;5.05;2.67;;;;;;;;;;4957347;28;20046;-70
2022/08/12 03:11:35;;;;;;;7.00;2.70;;;;;;;;;;4957972;28;20513;-70
2022/08/12 03:14:02;;;;;;;5.93;3.08;;;;;;;;;;4961163;28;20078;-70
2022/08/12 03:16:31;;;;;;;3.72;2.40;;;;;;;;;;4961606;28;20122;-70
2022/08/12 03:18:58;;;;;;;5.63;2.75;;;;;;;;;;4963715;28;20050;-70
2022/08/12 03:21:24;;;;;;;5.70;2.92;;;;;;;;;;4958806;28;20087;-70
2022/08/12 03:23:52;;;;;;;4.88;2.92;;;;;;;;;;4963184;28;20136;-70
2022/08/12 03:26:24;;;;;;;4.25;2.60;;;;;;;;;;4960107;28;20585;-71
2022/08/12 03:28:52;;;;;;;10.50;2.93;;;;;;;;;;4999756;28;20053;-70
2022/08/12 03:31:31;;;;;;;5.40;2.90;;;;;;;;;;5034685;28;20013;-70
2022/08/12 03:33:59;;;;;;;7.03;2.70;;;;;;;;;;5039880;28;20087;-70
2022/08/12 03:36:26;;;;;;;6.00;2.85;;;;;;;;;;5040258;28;20048;-70
2022/08/12 03:41:47;;;;;;;8.75;2.80;;;;;;;;;;5031256;28;20041;-70
2022/08/12 04:00:41;;;;;;;6.85;2.88;;;;;;;;;;5035680;28;20056;-70
2022/08/12 04:03:51;;;;;;;7.95;3.00;;;;;;;;;;5035570;28;20022;-70
2022/08/12 04:05:54;;;;;;;5.15;2.80;;;;;;;;;;5033486;28;20044;-70
2022/08/12 04:08:23;;;;;;;6.03;3.53;;;;;;;;;;5040063;28;20029;-69
2022/08/12 04:13:33;;;;;;;9.88;3.50;;;;;;;;;;5066701;28;20047;-70
2022/08/12 04:16:01;;;;;;;19.63;3.92;;;;;;;;;;5061464;28;20029;-69
2022/08/12 04:18:27;;;;;;;12.70;3.50;;;;;;;;;;5072315;28;20052;-70
2022/08/12 04:20:54;;;;;;;21.35;3.95;;;;;;;;;;5059681;28;20041;-69
2022/08/12 04:23:22;;;;;;;12.18;3.25;;;;;;;;;;5058813;28;20489;-70
2022/08/12 04:25:48;;;;;;;13.25;3.13;;;;;;;;;;5054466;28;20024;-70
2022/08/12 04:28:14;;;;;;;45.40;6.20;;;;;;;;;;5068500;28;20108;-70
2022/08/12 04:30:40;;;;;;;11.73;3.88;;;;;;;;;;5065279;28;20477;-70
2022/08/12 04:33:11;;;;;;;5.60;3.10;;;;;;;;;;5061584;28;20041;-70
2022/08/12 04:35:37;;;;;;;5.95;3.20;;;;;;;;;;5058251;28;20021;-70
2022/08/12 04:38:04;;;;;;;11.65;3.80;;;;;;;;;;5060768;28;20036;-71
2022/08/12 04:40:32;;;;;;;14.48;4.18;;;;;;;;;;5061476;28;20081;-71
2022/08/12 04:43:02;;;;;;;7.97;3.40;;;;;;;;;;5065572;28;20039;-70
2022/08/12 04:45:28;;;;;;;14.00;3.53;;;;;;;;;;5067298;28;20033;-74
2022/08/12 04:47:55;;;;;;;12.73;3.63;;;;;;;;;;5066051;28;20029;-70
2022/08/12 04:50:23;;;;;;;9.05;3.80;;;;;;;;;;5058756;28;20081;-70
2022/08/12 04:52:50;;;;;;;10.48;3.65;;;;;;;;;;5059558;28;20074;-70
2022/08/12 04:55:17;;;;;;;9.70;3.53;;;;;;;;;;5069664;28;20084;-70
2022/08/12 04:57:43;;;;;;;7.28;2.92;;;;;;;;;;5066106;28;20056;-69
2022/08/12 05:00:13;;;;;;;7.82;3.22;;;;;;;;;;5069926;28;20036;-70
2022/08/12 05:02:39;;;;;;;7.53;3.30;;;;;;;;;;5071266;28;20052;-70
2022/08/12 05:05:07;;;;;;;15.18;3.40;;;;;;;;;;5055220;28;20036;-70
2022/08/12 05:07:34;;;;;;;9.50;3.55;;;;;;;;;;5055557;28;20033;-69
2022/08/12 05:10:00;;;;;;;11.00;3.83;;;;;;;;;;5067153;28;20016;-70
2022/08/12 05:12:28;;;;;;;9.02;3.90;;;;;;;;;;5045265;28;20526;-69
2022/08/12 05:14:54;;;;;;;10.05;4.70;;;;;;;;;;5042867;28;20028;-70
2022/08/12 05:17:20;;;;;;;8.40;4.03;;;;;;;;;;5049766;28;20421;-73
2022/08/12 05:19:46;;;;;;;14.25;4.10;;;;;;;;;;5039598;28;20050;-71
2022/08/12 05:22:12;;;;;;;5.95;3.75;;;;;;;;;;5034427;28;20033;-71
2022/08/12 05:24:38;;;;;;;8.68;4.07;;;;;;;;;;5034409;28;20033;-70
2022/08/12 05:27:05;;;;;;;9.00;4.30;;;;;;;;;;5045906;28;20082;-89
2022/08/12 05:29:31;;;;;;;13.38;4.50;;;;;;;;;;5037408;28;20459;-74
2022/08/12 05:31:58;;;;;;;8.38;4.18;;;;;;;;;;5018128;28;20072;-77
2022/08/12 05:34:27;;;;;;;10.32;4.18;;;;;;;;;;5034844;28;20044;-86
2022/08/12 05:36:53;;;;;;;12.50;4.53;;;;;;;;;;5034997;28;20049;-68
2022/08/12 05:39:19;;;;;;;5.90;4.22;;;;;;;;;;5040627;28;20033;-69
2022/08/12 05:41:45;;;;;;;9.80;3.78;;;;;;;;;;5033281;28;20108;-85
2022/08/12 05:44:12;;;;;;;8.18;3.50;;;;;;;;;;5025807;28;20018;-78
2022/08/12 05:46:38;;;;;;;10.48;3.78;;;;;;;;;;5034175;28;20133;-77
2022/08/12 05:49:05;;;;;;;9.15;4.00;;;;;;;;;;5042351;28;20034;-79
2022/08/12 05:51:32;;;;;;;7.15;3.85;;;;;;;;;;5041671;28;20105;-72
2022/08/12 05:53:59;;;;;;;5.90;3.50;;;;;;;;;;5041985;28;20482;-72
2022/08/12 05:56:27;;;;;;;6.35;3.65;;;;;;;;;;5041874;28;20570;-75
2022/08/12 05:58:54;;;;;;;10.23;3.88;;;;;;;;;;5038769;28;20045;-71
2022/08/12 06:01:21;;;;;;;10.52;3.50;;;;;;;;;;5041532;28;20021;-79
2022/08/12 06:03:47;;;;;;;8.88;3.33;;;;;;;;;;5033710;28;20033;-74
2022/08/12 06:06:18;;;;;;;12.02;3.85;;;;;;;;;;5044143;28;20044;-71
2022/08/12 06:08:46;;;;;;;10.25;4.18;;;;;;;;;;5037474;28;20040;-71
2022/08/12 06:11:12;;;;;;;6.05;4.00;;;;;;;;;;5045670;28;20051;-68
2022/08/12 06:13:40;;;;;;;8.63;3.53;;;;;;;;;;5060562;28;20052;-75
2022/08/12 06:16:07;;;;;;;7.68;3.50;;;;;;;;;;5065411;28;20021;-73
2022/08/12 06:18:33;;;;;;;9.45;3.67;;;;;;;;;;5061843;28;20021;-74
2022/08/12 06:20:59;;;;;;;9.60;3.70;;;;;;;;;;5067155;28;20025;-74
2022/08/12 06:23:27;;;;;;;11.40;3.80;;;;;;;;;;5067351;28;20024;-72
2022/08/12 06:25:54;;;;;;;9.80;4.32;;;;;;;;;;5071836;28;20024;-72
2022/08/12 06:28:21;;;;;;;21.42;4.53;;;;;;;;;;5049666;28;20100;-72
2022/08/12 06:30:47;;;;;;;9.20;4.32;;;;;;;;;;5055661;28;20039;-72
2022/08/12 06:33:13;;;;;;;8.15;3.80;;;;;;;;;;5061675;28;20041;-72
2022/08/12 06:35:41;;;;;;;10.35;4.20;;;;;;;;;;5057932;28;20099;-71
2022/08/12 06:38:15;;;;;;;7.38;3.70;;;;;;;;;;5057164;28;20029;-73
2022/08/12 06:43:27;;;;;;;9.45;4.07;;;;;;;;;;5058558;28;20438;-69
2022/08/12 06:45:54;;;;;;;11.50;3.90;;;;;;;;;;5069511;28;20026;-73
2022/08/12 06:48:20;;;;;;;9.10;3.72;;;;;;;;;;5059003;28;20050;-83
2022/08/12 06:50:48;;;;;;;22.17;4.63;;;;;;;;;;5048451;28;20044;-75
2022/08/12 06:53:15;;;;;;;14.77;4.25;;;;;;;;;;5050501;28;20471;-74
2022/08/12 06:55:41;;;;;;;27.08;5.72;;;;;;;;;;5038479;28;20052;-71
2022/08/12 06:58:08;;;;;;;17.58;5.03;;;;;;;;;;5054520;28;20021;-80
2022/08/12 07:00:34;;;;;;;13.07;4.65;;;;;;;;;;5059352;28;20475;-69
2022/08/12 07:03:01;;;;;;;22.50;4.82;;;;;;;;;;5058846;28;20016;-70
2022/08/12 07:05:27;;;;;;;9.18;3.60;;;;;;;;;;5064933;28;20027;-73
2022/08/12 07:08:04;;;;;;;31.55;5.50;;;;;;;;;;5070787;28;20035;-80
2022/08/12 07:10:31;;;;;;;9.45;3.95;;;;;;;;;;5056072;28;20075;-69
2022/08/12 07:12:59;;;;;;;16.05;4.72;;;;;;;;;;5048104;28;20123;-74
2022/08/12 07:15:25;;;;;;;18.98;5.28;;;;;;;;;;5048172;28;20466;-74
2022/08/12 07:20:40;;;;;;;22.02;4.47;;;;;;;;;;5061573;28;20497;-69
2022/08/12 07:23:06;;;;;;;10.95;4.10;;;;;;;;;;5031429;28;20569;-71
2022/08/12 07:25:33;;;;;;;11.75;4.25;;;;;;;;;;5052861;28;20079;-69
2022/08/12 07:28:04;;;;;;;7.75;4.10;;;;;;;;;;5062347;28;20025;-68
2022/08/12 07:30:35;;;;;;;18.05;4.40;;;;;;;;;;5058107;28;20048;-77
2022/08/12 07:33:03;;;;;;;9.43;4.20;;;;;;;;;;5043645;28;20047;-70
2022/08/12 07:35:30;;;;;;;13.45;4.75;;;;;;;;;;5045209;28;20032;-85
2022/08/12 07:37:56;;;;;;;15.88;4.60;;;;;;;;;;5057250;28;20118;-70
2022/08/12 07:40:24;;;;;;;11.80;4.03;;;;;;;;;;5069117;28;20099;-70
2022/08/12 07:42:51;;;;;;;8.82;3.63;;;;;;;;;;5061835;28;20052;-70
2022/08/12 07:45:19;;;;;;;10.13;4.00;;;;;;;;;;5055909;28;20029;-69
2022/08/12 07:47:45;;;;;;;12.20;4.00;;;;;;;;;;5055492;28;20032;-76
2022/08/12 07:50:12;;;;;;;19.48;4.20;;;;;;;;;;5053551;28;20032;-71
2022/08/12 07:52:41;;;;;;;8.27;2.90;;;;;;;;;;5058681;28;20494;-71
2022/08/12 07:55:09;;;;;;;13.13;4.15;;;;;;;;;;5059501;28;20417;-70
2022/08/12 07:57:35;;;;;;;15.25;3.63;;;;;;;;;;5058268;28;20090;-68
2022/08/12 08:00:04;;;;;;;9.00;3.30;;;;;;;;;;5053962;28;20033;-77
2022/08/12 08:02:35;;;;;;;14.10;3.63;;;;;;;;;;5060387;28;20029;-79
2022/08/12 08:05:01;;;;;;;9.98;3.00;;;;;;;;;;5049781;28;20019;-69
2022/08/12 08:07:28;;;;;;;17.17;3.83;;;;;;;;;;5054603;28;20025;-70
2022/08/12 08:09:56;;;;;;;17.65;4.50;;;;;;;;;;5060837;28;20046;-70
2022/08/12 08:15:10;;;;;;;19.75;4.07;;;;;;;;;;5061392;28;20085;-75
2022/08/12 08:17:39;;;;;;;11.00;3.45;;;;;;;;;;5052737;28;20108;-69
2022/08/12 08:20:07;;;;;;;18.73;3.85;;;;;;;;;;5059196;28;20054;-72
2022/08/12 08:22:37;;;;;;;8.93;3.25;;;;;;;;;;5050636;28;20546;-70
2022/08/12 08:25:04;;;;;;;11.18;3.78;;;;;;;;;;5061905;28;20107;-85
2022/08/12 08:27:44;;;;;;;11.75;3.60;;;;;;;;;;5054695;28;20473;-72
2022/08/12 08:30:10;;;;;;;7.88;3.25;;;;;;;;;;5054759;28;20024;-80
2022/08/12 08:32:36;;;;;;;7.88;3.10;;;;;;;;;;5058172;28;20029;-88
2022/08/12 08:35:04;;;;;;;13.18;3.60;;;;;;;;;;5054053;28;20053;-91
2022/08/12 08:37:31;;;;;;;9.38;3.50;;;;;;;;;;5055942;28;20017;-90
2022/08/12 08:42:35;;;;;;;5.68;2.97;;;;;;;;;;5060603;28;20035;-88
2022/08/12 08:42:44;;;;;;;8.15;3.40;;;;;;;;;;5063313;28;20037;-82
2022/08/12 08:45:14;;;;;;;9.77;3.20;;;;;;;;;;5056182;28;20017;-77
2022/08/12 08:47:44;;;;;;;10.43;3.47;;;;;;;;;;5057765;28;20028;-72
2022/08/12 08:50:13;;;;;;;13.75;3.28;;;;;;;;;;5051714;28;20092;-72
2022/08/12 08:52:40;;;;;;;10.80;2.88;;;;;;;;;;5053776;28;20029;-75
2022/08/12 08:55:06;;;;;;;10.50;3.25;;;;;;;;;;5052161;28;20037;-72
2022/08/12 08:57:32;;;;;;;17.88;4.15;;;;;;;;;;5051340;28;20056;-80
2022/08/12 08:59:59;;;;;;;6.97;3.05;;;;;;;;;;5053119;28;20355;-82
2022/08/12 09:02:25;;;;;;;18.05;3.80;;;;;;;;;;5067364;28;20020;-86
2022/08/12 09:04:51;;;;;;;9.77;3.60;;;;;;;;;;5058030;28;20029;-77
2022/08/12 09:07:17;;;;;;;6.88;3.08;;;;;;;;;;5052240;28;20021;-84
2022/08/12 09:09:43;;;;;;;21.70;4.10;;;;;;;;;;5045187;28;20471;-72
2022/08/12 09:14:54;;;;;;;16.08;3.70;;;;;;;;;;5048022;28;20048;-78
2022/08/12 09:17:21;;;;;;;7.45;3.08;;;;;;;;;;5057135;28;20017;-81
2022/08/12 09:19:47;;;;;;;11.48;3.15;;;;;;;;;;5056407;28;20036;-75
2022/08/12 09:22:13;;;;;;;10.27;2.90;;;;;;;;;;5052471;28;20024;-81
2022/08/12 09:24:40;;;;;;;6.43;3.00;;;;;;;;;;5052395;28;20071;-81
2022/08/12 09:27:07;;;;;;;5.07;3.00;;;;;;;;;;5052076;28;20029;-78
2022/08/12 09:29:33;;;;;;;10.18;3.70;;;;;;;;;;5060235;28;20071;-77
2022/08/12 09:32:00;;;;;;;7.53;3.35;;;;;;;;;;5052023;28;20494;-81
2022/08/12 09:34:28;;;;;;;5.97;2.80;;;;;;;;;;5057831;28;20071;-79
2022/08/12 09:36:55;;;;;;;6.63;3.10;;;;;;;;;;5034544;28;20033;-80
2022/08/12 09:39:21;;;;;;;5.50;3.15;;;;;;;;;;5053415;28;20051;-75
2022/08/12 09:45:19;;;;;;;4.75;3.10;;;;;;;;;;5052227;28;20471;-84
2022/08/12 09:47:19;;;;;;;23.60;3.70;;;;;;;;;;5053558;28;20086;-84
2022/08/12 09:49:46;;;;;;;11.65;3.30;;;;;;;;;;5057550;28;20040;-77
2022/08/12 09:52:14;;;;;;;8.10;3.20;;;;;;;;;;5058897;28;20035;-74
2022/08/12 09:54:40;;;;;;;5.10;3.10;;;;;;;;;;5047518;28;20075;-83
2022/08/12 09:57:07;;;;;;;8.88;3.00;;;;;;;;;;5056382;28;20048;-72
2022/08/12 09:59:34;;;;;;;7.18;2.70;;;;;;;;;;5053199;28;20071;-74
2022/08/12 10:02:00;;;;;;;22.00;3.58;;;;;;;;;;5059080;28;20024;-71
2022/08/12 10:04:26;;;;;;;5.60;2.40;;;;;;;;;;5061338;28;20029;-80
2022/08/12 10:06:52;;;;;;;5.68;2.67;;;;;;;;;;5069415;28;20046;-70
2022/08/12 10:09:18;;;;;;;14.50;4.07;;;;;;;;;;5060393;28;20060;-75
2022/08/12 10:14:29;;;;;;;4.15;2.80;;;;;;;;;;5053423;28;20113;-72
2022/08/12 10:16:55;;;;;;;5.95;3.15;;;;;;;;;;5057757;28;20125;-88
2022/08/12 10:19:21;;;;;;;7.13;3.13;;;;;;;;;;5047293;28;20045;-84
2022/08/12 10:21:47;;;;;;;5.85;3.03;;;;;;;;;;5057675;28;20052;-70
2022/08/12 10:24:15;;;;;;;9.48;3.15;;;;;;;;;;5060266;28;20040;-69
2022/08/12 10:29:46;;;;;;;7.53;3.50;;;;;;;;;;5068820;28;20058;-73
2022/08/12 10:32:19;;;;;;;5.82;3.05;;;;;;;;;;5055140;28;20482;-69
2022/08/12 10:34:46;;;;;;;5.82;3.20;;;;;;;;;;5065628;28;20051;-71
2022/08/12 10:37:12;;;;;;;4.38;2.67;;;;;;;;;;5065209;28;20028;-73
2022/08/12 10:39:39;;;;;;;7.90;2.53;;;;;;;;;;5060688;28;20035;-75
2022/08/12 10:44:50;;;;;;;15.88;3.00;;;;;;;;;;5063581;28;20083;-67
2022/08/12 10:47:18;;;;;;;5.22;3.08;;;;;;;;;;5051514;28;20028;-67
2022/08/12 10:49:45;;;;;;;4.07;2.70;;;;;;;;;;5056670;28;20021;-68
2022/08/12 10:52:12;;;;;;;3.80;2.58;;;;;;;;;;5054898;28;20098;-69
2022/08/12 10:54:38;;;;;;;6.65;2.47;;;;;;;;;;5053309;28;20040;-68
2022/08/12 10:57:04;;;;;;;4.63;2.60;;;;;;;;;;5053083;28;20067;-67
2022/08/12 10:59:30;;;;;;;9.38;2.80;;;;;;;;;;5053092;28;20032;-67
2022/08/12 11:01:57;;;;;;;8.50;2.90;;;;;;;;;;5052738;28;20021;-69
2022/08/12 11:04:24;;;;;;;5.47;2.80;;;;;;;;;;5056789;28;20131;-71
2022/08/12 11:06:50;;;;;;;13.57;3.40;;;;;;;;;;5052638;28;20017;-67
2022/08/12 11:09:17;;;;;;;4.88;2.80;;;;;;;;;;5056919;28;20025;-70
2022/08/12 11:11:50;;;;;;;5.47;2.63;;;;;;;;;;5055328;28;20084;-75
2022/08/12 11:14:31;;;;;;;5.72;3.10;;;;;;;;;;5042710;28;20471;-67
2022/08/12 11:16:59;;;;;;;6.28;2.90;;;;;;;;;;5064571;28;20039;-66
2022/08/12 11:19:25;;;;;;;10.68;3.05;;;;;;;;;;5058040;28;20486;-66
2022/08/12 11:21:53;;;;;;;4.15;2.85;;;;;;;;;;5054863;28;20029;-66
2022/08/12 11:24:19;;;;;;;4.88;3.00;;;;;;;;;;5035680;28;20032;-70
2022/08/12 11:26:45;;;;;;;10.35;2.83;;;;;;;;;;5072999;28;20020;-67
2022/08/12 11:29:11;;;;;;;4.63;2.80;;;;;;;;;;5050700;28;20486;-66
2022/08/12 11:31:37;;;;;;;6.70;2.90;;;;;;;;;;5046999;28;20078;-67
2022/08/12 11:34:03;;;;;;;17.70;3.90;;;;;;;;;;5065153;28;20043;-66
2022/08/12 11:36:30;;;;;;;6.53;3.08;;;;;;;;;;5060706;28;20025;-67
2022/08/12 11:38:56;;;;;;;15.38;3.55;;;;;;;;;;5063968;28;20379;-70
2022/08/12 11:41:22;;;;;;;7.45;3.20;;;;;;;;;;5061587;28;20070;-69
2022/08/12 11:43:48;;;;;;;9.35;3.10;;;;;;;;;;5045779;28;20478;-76
2022/08/12 11:46:14;;;;;;;10.02;3.35;;;;;;;;;;5033596;28;20017;-71
2022/08/12 11:48:40;;;;;;;7.55;3.13;;;;;;;;;;5046249;28;20033;-77
2022/08/12 11:51:07;;;;;;;5.07;2.78;;;;;;;;;;5061233;28;20028;-69
2022/08/12 11:53:33;;;;;;;10.02;2.90;;;;;;;;;;5058656;28;20036;-69
2022/08/12 11:55:59;;;;;;;3.70;3.03;;;;;;;;;;5054066;28;20040;-67
2022/08/12 11:58:26;;;;;;;5.32;2.80;;;;;;;;;;5047062;28;20483;-67
2022/08/12 12:00:52;;;;;;;12.38;3.40;;;;;;;;;;5048661;28;20067;-70
2022/08/12 12:03:18;;;;;;;4.68;3.10;;;;;;;;;;5064150;28;20025;-69
2022/08/12 12:05:45;;;;;;;4.43;3.10;;;;;;;;;;5068178;28;20048;-66
2022/08/12 12:08:21;;;;;;;5.05;2.83;;;;;;;;;;5056428;28;20028;-66
2022/08/12 12:10:48;;;;;;;6.70;3.38;;;;;;;;;;5055946;28;20036;-67
2022/08/12 12:13:14;;;;;;;31.45;5.00;;;;;;;;;;5056008;28;20029;-66
2022/08/12 12:15:40;;;;;;;38.40;5.28;;;;;;;;;;5050278;28;20031;-76
2022/08/12 12:18:06;;;;;;;5.80;3.47;;;;;;;;;;5051088;28;20048;-70
2022/08/12 12:20:33;;;;;;;17.13;4.45;;;;;;;;;;5053512;28;20052;-66
2022/08/12 12:22:59;;;;;;;9.98;4.13;;;;;;;;;;5049746;28;20107;-69
2022/08/12 12:25:25;;;;;;;6.03;3.30;;;;;;;;;;5071675;28;20021;-72
2022/08/12 12:27:52;;;;;;;5.95;3.42;;;;;;;;;;5059494;28;20029;-71
2022/08/12 12:30:19;;;;;;;6.95;3.15;;;;;;;;;;5058722;28;20052;-65
2022/08/12 12:32:45;;;;;;;8.13;3.92;;;;;;;;;;5051922;28;20162;-73
2022/08/12 12:35:11;;;;;;;7.28;3.50;;;;;;;;;;5071156;28;20021;-68
2022/08/12 12:37:54;;;;;;;8.02;3.95;;;;;;;;;;5060215;28;20020;-73
2022/08/12 12:40:20;;;;;;;8.87;3.50;;;;;;;;;;5052353;28;20025;-68
2022/08/12 12:42:46;;;;;;;6.57;3.78;;;;;;;;;;5065430;28;20498;-69
2022/08/12 12:45:13;;;;;;;4.05;2.85;;;;;;;;;;5070981;28;20029;-70
2022/08/12 12:47:51;;;;;;;6.47;3.42;;;;;;;;;;5055753;28;20047;-70
2022/08/12 12:50:17;;;;;;;5.88;3.30;;;;;;;;;;5044373;28;20064;-68
2022/08/12 12:52:44;;;;;;;32.45;4.60;;;;;;;;;;5063849;28;20040;-66
2022/08/12 12:55:10;;;;;;;20.95;4.28;;;;;;;;;;5059655;28;20033;-68
2022/08/12 12:57:39;;;;;;;38.63;7.53;;;;;;;;;;5065333;28;20509;-68
2022/08/12 13:00:16;;;;;;;28.15;5.95;;;;;;;;;;5055699;28;20017;-69
2022/08/12 13:02:54;;;;;;;7.03;3.80;;;;;;;;;;5048312;28;20029;-67
2022/08/12 13:05:28;;;;;;;18.75;4.45;;;;;;;;;;5053163;28;20021;-67
2022/08/12 13:07:54;;;;;;;9.77;4.30;;;;;;;;;;5062081;28;20028;-71
2022/08/12 13:10:22;;;;;;;11.57;4.30;;;;;;;;;;5062125;28;20021;-67
2022/08/12 13:12:48;;;;;;;19.67;4.50;;;;;;;;;;5054955;28;20037;-67
2022/08/12 13:15:14;;;;;;;11.68;3.95;;;;;;;;;;5059921;28;20402;-70
2022/08/12 13:17:46;;;;;;;9.77;3.80;;;;;;;;;;5063664;28;20024;-74
2022/08/12 13:20:13;;;;;;;13.93;4.50;;;;;;;;;;5060775;28;20048;-77
2022/08/12 13:22:40;;;;;;;7.22;3.88;;;;;;;;;;5054875;28;20021;-78
2022/08/12 13:25:06;;;;;;;6.28;4.00;;;;;;;;;;5055330;28;20035;-78
2022/08/12 13:27:36;;;;;;;10.43;4.07;;;;;;;;;;5059750;28;20029;-77
2022/08/12 13:30:08;;;;;;;18.80;5.07;;;;;;;;;;5063405;28;20048;-81
2022/08/12 13:32:36;;;;;;;6.80;3.65;;;;;;;;;;5056338;28;20485;-81
2022/08/12 13:35:02;;;;;;;6.55;3.35;;;;;;;;;;5056648;28;20018;-82
2022/08/12 13:37:28;;;;;;;6.15;3.80;;;;;;;;;;5048061;28;20033;-81
2022/08/12 13:39:54;;;;;;;6.93;3.95;;;;;;;;;;5055689;28;20029;-93
2022/08/12 13:42:24;;;;;;;7.13;3.70;;;;;;;;;;5069501;28;20025;-75
2022/08/12 13:44:51;;;;;;;6.80;3.58;;;;;;;;;;5058448;28;20052;-83
2022/08/12 13:47:19;;;;;;;16.95;4.90;;;;;;;;;;5058885;28;20035;-82
2022/08/12 13:49:45;;;;;;;25.48;5.28;;;;;;;;;;5071437;28;20029;-84
2022/08/12 13:52:11;;;;;;;15.80;5.40;;;;;;;;;;5058598;28;20486;-86
2022/08/12 13:54:37;;;;;;;18.10;4.40;;;;;;;;;;5058978;28;20075;-86
2022/08/12 13:57:04;;;;;;;8.15;3.92;;;;;;;;;;5050719;28;20055;-82
2022/08/12 13:59:30;;;;;;;11.35;3.95;;;;;;;;;;5062595;28;20016;-81
2022/08/12 14:01:56;;;;;;;62.67;6.32;;;;;;;;;;5061625;28;20029;-85
2022/08/12 14:04:22;;;;;;;7.15;3.95;;;;;;;;;;5072162;28;20163;-85
2022/08/12 14:06:49;;;;;;;8.43;4.07;;;;;;;;;;5060494;28;20037;-87
2022/08/12 14:09:15;;;;;;;5.25;3.63;;;;;;;;;;5058672;28;20025;-72
2022/08/12 14:11:41;;;;;;;17.92;3.85;;;;;;;;;;5057219;28;20045;-76
2022/08/12 14:14:08;;;;;;;6.45;3.80;;;;;;;;;;5061535;28;20057;-83
2022/08/12 14:16:35;;;;;;;5.95;3.60;;;;;;;;;;5058706;28;20025;-79
2022/08/12 14:19:01;;;;;;;21.83;4.47;;;;;;;;;;5052130;28;20083;-73
2022/08/12 14:21:28;;;;;;;5.82;3.40;;;;;;;;;;5059826;28;20108;-72
2022/08/12 14:23:55;;;;;;;8.07;3.80;;;;;;;;;;5066159;28;20047;-73
2022/08/12 14:26:23;;;;;;;11.75;3.70;;;;;;;;;;5060902;28;20072;-77
2022/08/12 14:28:52;;;;;;;9.43;3.95;;;;;;;;;;5056623;28;20433;-84
2022/08/12 14:31:20;;;;;;;11.95;3.95;;;;;;;;;;5060077;28;20028;-71
2022/08/12 14:33:47;;;;;;;7.60;3.90;;;;;;;;;;5059726;28;20089;-90
2022/08/12 14:36:24;;;;;;;7.70;3.78;;;;;;;;;;5041469;28;20024;-79
2022/08/12 14:38:52;;;;;;;8.77;3.80;;;;;;;;;;5058579;28;20111;-74
2022/08/12 14:41:20;;;;;;;23.20;4.10;;;;;;;;;;5060188;28;20021;-89
2022/08/12 14:43:48;;;;;;;13.32;3.53;;;;;;;;;;5058553;28;20025;-77
2022/08/12 14:46:15;;;;;;;13.40;4.22;;;;;;;;;;5057668;28;20021;-79
2022/08/12 14:48:44;;;;;;;10.05;3.88;;;;;;;;;;5032406;28;20056;-80
2022/08/12 14:51:11;;;;;;;12.95;4.10;;;;;;;;;;5057476;28;20028;-81
2022/08/12 14:53:37;;;;;;;9.35;3.60;;;;;;;;;;5052867;28;20056;-80
2022/08/12 14:56:04;;;;;;;6.15;3.30;;;;;;;;;;5058572;28;20021;-77
2022/08/12 14:58:30;;;;;;;13.80;3.75;;;;;;;;;;5057482;28;20075;-76
2022/08/12 15:03:43;;;;;;;7.43;3.30;;;;;;;;;;5050963;28;20044;-77
2022/08/12 15:06:10;;;;;;;5.30;3.00;;;;;;;;;;5048319;28;20078;-75
2022/08/12 15:08:40;;;;;;;5.25;3.00;;;;;;;;;;5053660;28;20504;-73
2022/08/12 15:11:12;;;;;;;4.10;3.15;;;;;;;;;;5047932;28;20491;-81
2022/08/12 15:13:38;;;;;;;5.15;3.22;;;;;;;;;;5036061;28;20036;-78
2022/08/12 15:16:04;;;;;;;6.40;3.42;;;;;;;;;;5039022;28;20034;-77
2022/08/12 15:18:31;;;;;;;23.08;4.32;;;;;;;;;;5020343;28;20034;-83
2022/08/12 15:20:59;;;;;;;7.07;3.20;;;;;;;;;;5046357;28;20068;-86
2022/08/12 15:23:26;;;;;;;12.02;3.50;;;;;;;;;;5042710;28;20041;-78
2022/08/12 15:25:54;;;;;;;15.55;3.60;;;;;;;;;;5033291;28;20029;-83
2022/08/12 15:28:21;;;;;;;7.55;4.50;;;;;;;;;;5025778;28;20445;-78
2022/08/12 15:30:47;;;;;;;4.95;3.10;;;;;;;;;;5035880;28;20124;-72
2022/08/12 15:33:13;;;;;;;13.40;4.13;;;;;;;;;;5034921;28;20045;-73
2022/08/12 15:35:39;;;;;;;4.13;3.00;;;;;;;;;;5033578;28;20036;-84
2022/08/12 15:38:07;;;;;;;8.55;3.47;;;;;;;;;;5033916;28;20064;-78
2022/08/12 15:40:34;;;;;;;3.92;3.00;;;;;;;;;;5028203;28;20025;-84
2022/08/12 15:43:02;;;;;;;12.15;3.85;;;;;;;;;;5032613;28;20018;-74
2022/08/12 15:45:29;;;;;;;19.02;5.25;;;;;;;;;;5029869;28;20039;-73
2022/08/12 15:47:55;;;;;;;15.65;3.65;;;;;;;;;;5042349;28;20056;-70
2022/08/12 15:50:24;;;;;;;4.68;3.10;;;;;;;;;;5032303;28;20029;-71
2022/08/12 15:52:51;;;;;;;14.50;3.53;;;;;;;;;;5037780;28;20394;-69
2022/08/12 15:55:17;;;;;;;5.95;3.15;;;;;;;;;;5036771;28;20021;-69
2022/08/12 15:57:51;;;;;;;6.43;3.10;;;;;;;;;;5040015;28;20116;-71
2022/08/12 16:00:17;;;;;;;6.28;3.03;;;;;;;;;;5038720;28;20534;-70
2022/08/12 16:02:44;;;;;;;4.38;2.80;;;;;;;;;;5037660;28;20025;-78
2022/08/12 16:05:10;;;;;;;10.80;3.60;;;;;;;;;;5033602;28;20030;-69
2022/08/12 16:07:36;;;;;;;6.13;3.40;;;;;;;;;;5040599;28;20029;-69
2022/08/12 16:10:03;;;;;;;4.90;3.00;;;;;;;;;;5043992;28;20131;-69
2022/08/12 16:12:31;;;;;;;6.95;4.03;;;;;;;;;;5054183;28;20041;-79
2022/08/12 16:14:57;;;;;;;3.70;2.90;;;;;;;;;;5061210;28;20027;-69
2022/08/12 16:17:23;;;;;;;8.60;3.30;;;;;;;;;;5058287;28;20067;-72
2022/08/12 16:19:50;;;;;;;6.95;3.20;;;;;;;;;;5054223;28;20429;-70
2022/08/12 16:22:16;;;;;;;5.38;3.50;;;;;;;;;;5050546;28;20383;-75
2022/08/12 16:24:45;;;;;;;8.38;3.45;;;;;;;;;;5052695;28;20033;-76
2022/08/12 16:27:12;;;;;;;5.03;3.10;;;;;;;;;;5047882;28;20036;-80
2022/08/12 16:29:38;;;;;;;5.03;3.10;;;;;;;;;;5046008;28;20029;-73